sensor_id;sensor_type;location;lat;lon;timestamp;pressure;altitude;pressure_sealevel;temperature;humidity
72262;BME280;60173;52.112;8.648;2023-05-03T00:01:08;101870.28;;;4.26;81.49
72262;BME280;60173;52.112;8.648;2023-05-03T00:03:34;101874.31;;;4.17;82.22
72262;BME280;60173;52.112;8.648;2023-05-03T00:06:11;101875.41;;;4.10;82.73
72262;BME280;60173;52.112;8.648;2023-05-03T00:08:37;101872.25;;;3.88;83.39
72262;BME280;60173;52.112;8.648;2023-05-03T00:11:04;101872.75;;;3.78;84.55
72262;BME280;60173;52.112;8.648;2023-05-03T00:13:30;101867.66;;;3.70;85.15
72262;BME280;60173;52.112;8.648;2023-05-03T00:15:57;101864.00;;;3.57;85.51
72262;BME280;60173;52.112;8.648;2023-05-03T00:18:23;101866.78;;;3.44;86.04
72262;BME280;60173;52.112;8.648;2023-05-03T00:20:49;101869.94;;;3.34;86.76
72262;BME280;60173;52.112;8.648;2023-05-03T00:23:16;101877.00;;;3.29;87.47
72262;BME280;60173;52.112;8.648;2023-05-03T00:25:42;101875.97;;;3.30;87.49
72262;BME280;60173;52.112;8.648;2023-05-03T00:28:08;101872.44;;;3.36;87.14
72262;BME280;60173;52.112;8.648;2023-05-03T00:30:35;101863.81;;;3.21;87.09
72262;BME280;60173;52.112;8.648;2023-05-03T00:33:01;101869.84;;;3.09;87.40
72262;BME280;60173;52.112;8.648;2023-05-03T00:35:27;101876.66;;;3.19;87.55
72262;BME280;60173;52.112;8.648;2023-05-03T00:37:54;101875.25;;;3.03;87.22
72262;BME280;60173;52.112;8.648;2023-05-03T00:40:20;101873.81;;;3.00;88.21
72262;BME280;60173;52.112;8.648;2023-05-03T00:42:46;101873.47;;;2.90;88.75
72262;BME280;60173;52.112;8.648;2023-05-03T00:45:12;101871.41;;;2.85;89.57
72262;BME280;60173;52.112;8.648;2023-05-03T00:47:39;101873.25;;;2.85;89.63
72262;BME280;60173;52.112;8.648;2023-05-03T00:50:06;101870.59;;;2.85;89.81
72262;BME280;60173;52.112;8.648;2023-05-03T00:52:33;101867.28;;;2.83;90.18
72262;BME280;60173;52.112;8.648;2023-05-03T00:55:00;101866.06;;;2.79;90.30
72262;BME280;60173;52.112;8.648;2023-05-03T00:57:28;101865.25;;;2.71;89.93
72262;BME280;60173;52.112;8.648;2023-05-03T00:59:56;101871.88;;;2.62;90.53
72262;BME280;60173;52.112;8.648;2023-05-03T01:02:22;101867.59;;;2.48;90.82
72262;BME280;60173;52.112;8.648;2023-05-03T01:04:50;101864.09;;;2.41;91.60
72262;BME280;60173;52.112;8.648;2023-05-03T01:07:52;101866.78;;;2.34;92.21
72262;BME280;60173;52.112;8.648;2023-05-03T01:18:16;101873.63;;;2.10;93.29
72262;BME280;60173;52.112;8.648;2023-05-03T01:20:47;101868.25;;;1.90;93.57
72262;BME280;60173;52.112;8.648;2023-05-03T01:23:21;101874.00;;;1.94;94.42
72262;BME280;60173;52.112;8.648;2023-05-03T01:25:53;101874.88;;;1.94;94.29
72262;BME280;60173;52.112;8.648;2023-05-03T01:28:19;101884.75;;;2.00;93.73
72262;BME280;60173;52.112;8.648;2023-05-03T01:30:47;101870.53;;;1.87;93.44
72262;BME280;60173;52.112;8.648;2023-05-03T01:33:26;101874.81;;;1.68;93.63
72262;BME280;60173;52.112;8.648;2023-05-03T01:36:15;101881.63;;;1.57;94.29
72262;BME280;60173;52.112;8.648;2023-05-03T01:38:43;101874.41;;;1.51;94.75
72262;BME280;60173;52.112;8.648;2023-05-03T01:41:11;101878.53;;;1.53;95.32
72262;BME280;60173;52.112;8.648;2023-05-03T01:43:39;101879.75;;;1.51;95.50
72262;BME280;60173;52.112;8.648;2023-05-03T01:46:05;101879.72;;;1.44;95.47
72262;BME280;60173;52.112;8.648;2023-05-03T01:48:32;101887.16;;;1.42;95.61
72262;BME280;60173;52.112;8.648;2023-05-03T01:50:58;101881.56;;;1.37;95.72
72262;BME280;60173;52.112;8.648;2023-05-03T01:53:24;101883.44;;;1.37;96.20
72262;BME280;60173;52.112;8.648;2023-05-03T01:55:51;101881.34;;;1.32;96.19
72262;BME280;60173;52.112;8.648;2023-05-03T01:58:17;101886.69;;;1.25;96.16
72262;BME280;60173;52.112;8.648;2023-05-03T02:00:44;101888.72;;;1.23;96.38
72262;BME280;60173;52.112;8.648;2023-05-03T02:03:10;101886.28;;;1.28;96.97
72262;BME280;60173;52.112;8.648;2023-05-03T02:05:37;101892.69;;;1.27;97.13
72262;BME280;60173;52.112;8.648;2023-05-03T02:08:03;101901.88;;;1.18;97.04
72262;BME280;60173;52.112;8.648;2023-05-03T02:10:30;101901.44;;;1.08;97.59
72262;BME280;60173;52.112;8.648;2023-05-03T02:12:56;101901.44;;;1.08;97.95
72262;BME280;60173;52.112;8.648;2023-05-03T02:15:22;101897.75;;;1.09;98.38
72262;BME280;60173;52.112;8.648;2023-05-03T02:17:49;101900.25;;;1.24;98.22
72262;BME280;60173;52.112;8.648;2023-05-03T02:20:15;101900.25;;;1.24;98.12
72262;BME280;60173;52.112;8.648;2023-05-03T02:22:42;101904.38;;;1.20;97.90
72262;BME280;60173;52.112;8.648;2023-05-03T02:25:08;101900.25;;;1.17;97.51
72262;BME280;60173;52.112;8.648;2023-05-03T02:27:34;101905.63;;;1.24;97.54
72262;BME280;60173;52.112;8.648;2023-05-03T02:30:01;101903.56;;;1.26;97.18
72262;BME280;60173;52.112;8.648;2023-05-03T02:32:28;101902.75;;;1.25;97.09
72262;BME280;60173;52.112;8.648;2023-05-03T02:34:54;101915.50;;;1.23;96.69
72262;BME280;60173;52.112;8.648;2023-05-03T02:37:20;101912.03;;;1.29;96.50
72262;BME280;60173;52.112;8.648;2023-05-03T02:39:47;101916.16;;;1.32;95.61
72262;BME280;60173;52.112;8.648;2023-05-03T02:42:13;101919.22;;;1.22;95.70
72262;BME280;60173;52.112;8.648;2023-05-03T02:44:39;101916.69;;;1.14;95.69
72262;BME280;60173;52.112;8.648;2023-05-03T02:47:06;101914.81;;;1.08;95.98
72262;BME280;60173;52.112;8.648;2023-05-03T02:49:32;101918.31;;;1.02;96.28
72262;BME280;60173;52.112;8.648;2023-05-03T02:51:59;101924.25;;;0.97;96.62
72262;BME280;60173;52.112;8.648;2023-05-03T02:54:25;101933.47;;;0.95;96.99
72262;BME280;60173;52.112;8.648;2023-05-03T02:56:51;101933.47;;;0.95;96.94
72262;BME280;60173;52.112;8.648;2023-05-03T02:59:17;101930.56;;;0.89;96.77
72262;BME280;60173;52.112;8.648;2023-05-03T03:01:45;101942.06;;;0.83;96.91
72262;BME280;60173;52.112;8.648;2023-05-03T03:04:12;101934.19;;;0.75;97.38
72262;BME280;60173;52.112;8.648;2023-05-03T03:06:38;101934.50;;;0.87;97.66
72262;BME280;60173;52.112;8.648;2023-05-03T03:09:05;101931.81;;;0.87;97.57
72262;BME280;60173;52.112;8.648;2023-05-03T03:11:31;101940.00;;;0.79;97.40
72262;BME280;60173;52.112;8.648;2023-05-03T03:13:58;101938.09;;;0.73;97.73
72262;BME280;60173;52.112;8.648;2023-05-03T03:16:24;101933.31;;;0.61;98.07
72262;BME280;60173;52.112;8.648;2023-05-03T03:18:50;101927.94;;;0.61;98.42
72262;BME280;60173;52.112;8.648;2023-05-03T03:21:17;101926.69;;;0.57;98.63
72262;BME280;60173;52.112;8.648;2023-05-03T03:23:43;101922.75;;;0.53;98.77
72262;BME280;60173;52.112;8.648;2023-05-03T03:26:09;101918.88;;;0.56;98.95
72262;BME280;60173;52.112;8.648;2023-05-03T03:28:36;101920.94;;;0.60;98.87
72262;BME280;60173;52.112;8.648;2023-05-03T03:31:02;101913.13;;;0.59;98.43
72262;BME280;60173;52.112;8.648;2023-05-03T03:33:28;101907.38;;;0.62;98.15
72262;BME280;60173;52.112;8.648;2023-05-03T03:35:55;101909.63;;;0.58;97.80
72262;BME280;60173;52.112;8.648;2023-05-03T03:38:21;101912.19;;;0.45;97.71
72262;BME280;60173;52.112;8.648;2023-05-03T03:40:47;101915.13;;;0.50;97.92
72262;BME280;60173;52.112;8.648;2023-05-03T03:43:14;101920.44;;;0.43;97.98
72262;BME280;60173;52.112;8.648;2023-05-03T03:45:40;101911.53;;;0.36;98.05
72262;BME280;60173;52.112;8.648;2023-05-03T03:48:06;101915.09;;;0.43;98.38
72262;BME280;60173;52.112;8.648;2023-05-03T03:50:33;101913.84;;;0.46;98.43
72262;BME280;60173;52.112;8.648;2023-05-03T03:52:59;101910.34;;;0.45;98.60
72262;BME280;60173;52.112;8.648;2023-05-03T03:55:26;101908.06;;;0.42;98.23
72262;BME280;60173;52.112;8.648;2023-05-03T03:57:52;101913.63;;;0.41;98.07
72262;BME280;60173;52.112;8.648;2023-05-03T04:00:18;101907.69;;;0.45;98.04
72262;BME280;60173;52.112;8.648;2023-05-03T04:02:45;101916.19;;;0.56;97.68
72262;BME280;60173;52.112;8.648;2023-05-03T04:05:12;101910.59;;;0.51;97.40
72262;BME280;60173;52.112;8.648;2023-05-03T04:07:39;101904.00;;;0.47;97.52
72262;BME280;60173;52.112;8.648;2023-05-03T04:10:05;101902.16;;;0.47;97.69
72262;BME280;60173;52.112;8.648;2023-05-03T04:12:32;101910.44;;;0.59;98.11
72262;BME280;60173;52.112;8.648;2023-05-03T04:14:58;101916.72;;;0.73;97.96
72262;BME280;60173;52.112;8.648;2023-05-03T04:17:25;101914.03;;;0.73;97.72
72262;BME280;60173;52.112;8.648;2023-05-03T04:19:51;101914.66;;;0.75;97.53
72262;BME280;60173;52.112;8.648;2023-05-03T04:22:17;101914.91;;;0.86;97.12
72262;BME280;60173;52.112;8.648;2023-05-03T04:24:44;101914.75;;;0.95;96.31
72262;BME280;60173;52.112;8.648;2023-05-03T04:27:10;101909.66;;;1.00;95.94
72262;BME280;60173;52.112;8.648;2023-05-03T04:29:36;101908.84;;;1.06;95.40
72262;BME280;60173;52.112;8.648;2023-05-03T04:32:03;101911.38;;;1.21;94.95
72262;BME280;60173;52.112;8.648;2023-05-03T04:34:29;101914.94;;;1.41;94.24
72262;BME280;60173;52.112;8.648;2023-05-03T04:36:55;101913.16;;;1.68;93.52
72262;BME280;60173;52.112;8.648;2023-05-03T04:39:22;101914.03;;;2.15;92.62
72262;BME280;60173;52.112;8.648;2023-05-03T04:41:48;101911.94;;;2.51;89.85
72262;BME280;60173;52.112;8.648;2023-05-03T04:44:14;101924.25;;;2.85;87.58
72262;BME280;60173;52.112;8.648;2023-05-03T04:46:41;101913.38;;;3.25;86.67
72262;BME280;60173;52.112;8.648;2023-05-03T04:49:07;101914.00;;;3.58;83.94
72262;BME280;60173;52.112;8.648;2023-05-03T04:51:34;101910.03;;;3.99;82.11
72262;BME280;60173;52.112;8.648;2023-05-03T04:54:00;101911.28;;;4.22;81.05
72262;BME280;60173;52.112;8.648;2023-05-03T04:56:26;101923.28;;;4.44;80.34
72262;BME280;60173;52.112;8.648;2023-05-03T04:58:53;101924.81;;;4.59;79.90
72262;BME280;60173;52.112;8.648;2023-05-03T05:01:19;101919.75;;;4.25;78.59
72262;BME280;60173;52.112;8.648;2023-05-03T05:03:45;101926.25;;;3.86;80.39
72262;BME280;60173;52.112;8.648;2023-05-03T05:06:12;101923.75;;;3.53;81.92
72262;BME280;60173;52.112;8.648;2023-05-03T05:08:38;101925.09;;;3.37;83.35
72262;BME280;60173;52.112;8.648;2023-05-03T05:11:04;101922.84;;;3.34;84.39
72262;BME280;60173;52.112;8.648;2023-05-03T05:13:31;101924.69;;;3.33;85.14
72262;BME280;60173;52.112;8.648;2023-05-03T05:15:57;101922.00;;;3.33;85.48
72262;BME280;60173;52.112;8.648;2023-05-03T05:18:24;101927.41;;;3.27;86.45
72262;BME280;60173;52.112;8.648;2023-05-03T05:20:50;101926.19;;;3.23;87.28
72262;BME280;60173;52.112;8.648;2023-05-03T05:23:16;101921.19;;;3.33;87.42
72262;BME280;60173;52.112;8.648;2023-05-03T05:25:43;101920.75;;;3.36;87.72
72262;BME280;60173;52.112;8.648;2023-05-03T05:28:10;101922.25;;;3.63;87.16
72262;BME280;60173;52.112;8.648;2023-05-03T05:30:36;101919.75;;;4.00;86.15
72262;BME280;60173;52.112;8.648;2023-05-03T05:33:02;101931.09;;;5.26;85.04
72262;BME280;60173;52.112;8.648;2023-05-03T05:35:29;101919.38;;;7.22;78.72
72262;BME280;60173;52.112;8.648;2023-05-03T05:37:55;101923.41;;;8.78;69.80
72262;BME280;60173;52.112;8.648;2023-05-03T05:40:21;101921.50;;;9.99;65.12
72262;BME280;60173;52.112;8.648;2023-05-03T05:42:48;101924.69;;;10.60;61.36
72262;BME280;60173;52.112;8.648;2023-05-03T05:45:14;101927.25;;;10.77;60.53
72262;BME280;60173;52.112;8.648;2023-05-03T05:47:41;101929.84;;;11.09;59.20
72262;BME280;60173;52.112;8.648;2023-05-03T05:50:07;101934.13;;;11.78;57.85
72262;BME280;60173;52.112;8.648;2023-05-03T05:52:43;101940.41;;;12.55;55.30
72262;BME280;60173;52.112;8.648;2023-05-03T05:55:09;101944.59;;;13.18;53.17
72262;BME280;60173;52.112;8.648;2023-05-03T05:57:36;101936.59;;;13.47;52.38
72262;BME280;60173;52.112;8.648;2023-05-03T06:00:02;101942.88;;;13.42;52.69
72262;BME280;60173;52.112;8.648;2023-05-03T06:02:29;101945.69;;;13.76;51.40
72262;BME280;60173;52.112;8.648;2023-05-03T06:04:56;101951.31;;;14.30;50.36
72262;BME280;60173;52.112;8.648;2023-05-03T06:07:22;101948.16;;;14.76;48.55
72262;BME280;60173;52.112;8.648;2023-05-03T06:09:49;101946.41;;;14.85;48.61
72262;BME280;60173;52.112;8.648;2023-05-03T06:12:15;101948.25;;;14.89;49.11
72262;BME280;60173;52.112;8.648;2023-05-03T06:14:41;101952.91;;;15.37;47.06
72262;BME280;60173;52.112;8.648;2023-05-03T06:17:26;101960.78;;;15.81;46.61
72262;BME280;60173;52.112;8.648;2023-05-03T06:19:52;101954.03;;;15.93;45.66
72262;BME280;60173;52.112;8.648;2023-05-03T06:22:19;101962.13;;;15.84;45.08
72262;BME280;60173;52.112;8.648;2023-05-03T06:24:45;101965.16;;;15.82;45.39
72262;BME280;60173;52.112;8.648;2023-05-03T06:27:11;101968.56;;;15.74;45.67
72262;BME280;60173;52.112;8.648;2023-05-03T06:29:38;101966.88;;;15.35;47.18
72262;BME280;60173;52.112;8.648;2023-05-03T06:32:04;101965.13;;;15.21;47.50
72262;BME280;60173;52.112;8.648;2023-05-03T06:34:31;101969.81;;;14.38;47.11
72262;BME280;60173;52.112;8.648;2023-05-03T06:36:57;101971.13;;;13.67;49.58
72262;BME280;60173;52.112;8.648;2023-05-03T06:39:23;101972.56;;;12.17;52.96
72262;BME280;60173;52.112;8.648;2023-05-03T06:41:49;101966.75;;;11.63;56.25
72262;BME280;60173;52.112;8.648;2023-05-03T06:44:16;101972.88;;;10.37;55.86
72262;BME280;60173;52.112;8.648;2023-05-03T06:46:42;101972.16;;;8.27;59.81
72262;BME280;60173;52.112;8.648;2023-05-03T06:49:09;101980.22;;;9.12;59.90
72262;BME280;60173;52.112;8.648;2023-05-03T06:51:35;101976.59;;;8.84;59.64
72262;BME280;60173;52.112;8.648;2023-05-03T06:54:02;101979.38;;;8.89;60.91
72262;BME280;60173;52.112;8.648;2023-05-03T06:56:28;101969.53;;;9.71;58.82
72262;BME280;60173;52.112;8.648;2023-05-03T06:58:55;101977.94;;;9.25;59.52
72262;BME280;60173;52.112;8.648;2023-05-03T07:01:21;101978.19;;;8.01;60.87
72262;BME280;60173;52.112;8.648;2023-05-03T07:03:47;101971.50;;;8.37;61.26
72262;BME280;60173;52.112;8.648;2023-05-03T07:06:14;101977.66;;;8.83;61.65
72262;BME280;60173;52.112;8.648;2023-05-03T07:08:40;101976.56;;;8.00;62.27
72262;BME280;60173;52.112;8.648;2023-05-03T07:11:07;101979.91;;;7.61;62.59
72262;BME280;60173;52.112;8.648;2023-05-03T07:13:33;101976.59;;;7.31;63.96
72262;BME280;60173;52.112;8.648;2023-05-03T07:15:59;101982.34;;;7.22;66.16
72262;BME280;60173;52.112;8.648;2023-05-03T07:18:28;101975.22;;;7.57;64.09
72262;BME280;60173;52.112;8.648;2023-05-03T07:20:55;101971.31;;;7.64;63.84
72262;BME280;60173;52.112;8.648;2023-05-03T07:23:21;101969.44;;;7.65;63.18
72262;BME280;60173;52.112;8.648;2023-05-03T07:25:47;101968.03;;;7.62;64.30
72262;BME280;60173;52.112;8.648;2023-05-03T07:28:15;101965.56;;;7.09;63.51
72262;BME280;60173;52.112;8.648;2023-05-03T07:30:41;101960.41;;;7.59;63.59
72262;BME280;60173;52.112;8.648;2023-05-03T07:33:08;101961.63;;;6.88;62.91
72262;BME280;60173;52.112;8.648;2023-05-03T07:35:34;101963.41;;;7.34;63.07
72262;BME280;60173;52.112;8.648;2023-05-03T07:38:00;101955.25;;;7.46;63.01
72262;BME280;60173;52.112;8.648;2023-05-03T07:40:27;101954.78;;;7.49;62.76
72262;BME280;60173;52.112;8.648;2023-05-03T07:42:53;101949.50;;;7.02;63.22
72262;BME280;60173;52.112;8.648;2023-05-03T07:45:20;101946.72;;;7.37;63.14
72262;BME280;60173;52.112;8.648;2023-05-03T07:47:46;101945.34;;;7.35;62.33
72262;BME280;60173;52.112;8.648;2023-05-03T07:50:12;101950.16;;;8.24;60.09
72262;BME280;60173;52.112;8.648;2023-05-03T07:52:39;101957.25;;;8.25;61.58
72262;BME280;60173;52.112;8.648;2023-05-03T07:55:06;101952.97;;;8.63;59.05
72262;BME280;60173;52.112;8.648;2023-05-03T07:57:32;101947.13;;;9.10;58.55
72262;BME280;60173;52.112;8.648;2023-05-03T07:59:58;101951.28;;;8.95;59.80
72262;BME280;60173;52.112;8.648;2023-05-03T08:02:25;101952.84;;;8.91;56.99
72262;BME280;60173;52.112;8.648;2023-05-03T08:04:52;101945.50;;;9.09;57.46
72262;BME280;60173;52.112;8.648;2023-05-03T08:07:19;101945.47;;;9.53;56.04
72262;BME280;60173;52.112;8.648;2023-05-03T08:09:45;101939.91;;;9.42;57.56
72262;BME280;60173;52.112;8.648;2023-05-03T08:12:12;101934.09;;;9.83;56.20
72262;BME280;60173;52.112;8.648;2023-05-03T08:14:38;101923.84;;;9.63;55.75
72262;BME280;60173;52.112;8.648;2023-05-03T08:17:04;101936.78;;;9.07;56.30
72262;BME280;60173;52.112;8.648;2023-05-03T08:19:31;101933.38;;;8.94;57.68
72262;BME280;60173;52.112;8.648;2023-05-03T08:21:57;101927.25;;;8.82;58.93
72262;BME280;60173;52.112;8.648;2023-05-03T08:24:23;101935.72;;;8.86;57.33
72262;BME280;60173;52.112;8.648;2023-05-03T08:26:50;101926.81;;;9.34;55.30
72262;BME280;60173;52.112;8.648;2023-05-03T08:29:16;101937.41;;;9.58;54.05
72262;BME280;60173;52.112;8.648;2023-05-03T08:31:42;101933.09;;;9.62;53.35
72262;BME280;60173;52.112;8.648;2023-05-03T08:34:09;101931.84;;;9.47;55.12
72262;BME280;60173;52.112;8.648;2023-05-03T08:36:35;101929.25;;;10.17;54.09
72262;BME280;60173;52.112;8.648;2023-05-03T08:39:03;101924.25;;;10.78;53.21
72262;BME280;60173;52.112;8.648;2023-05-03T08:41:30;101928.00;;;9.98;54.58
72262;BME280;60173;52.112;8.648;2023-05-03T08:43:59;101919.88;;;9.43;54.07
72262;BME280;60173;52.112;8.648;2023-05-03T08:46:26;101916.53;;;9.36;55.65
72262;BME280;60173;52.112;8.648;2023-05-03T08:48:54;101924.00;;;9.24;56.29
72262;BME280;60173;52.112;8.648;2023-05-03T08:51:22;101926.50;;;9.31;56.69
72262;BME280;60173;52.112;8.648;2023-05-03T08:53:49;101923.25;;;9.56;54.14
72262;BME280;60173;52.112;8.648;2023-05-03T08:56:23;101913.41;;;9.77;53.54
72262;BME280;60173;52.112;8.648;2023-05-03T08:58:49;101920.50;;;9.28;55.15
72262;BME280;60173;52.112;8.648;2023-05-03T09:01:15;101930.09;;;9.36;55.82
72262;BME280;60173;52.112;8.648;2023-05-03T09:03:48;101925.53;;;9.20;55.91
72262;BME280;60173;52.112;8.648;2023-05-03T09:06:22;101926.75;;;9.07;56.40
72262;BME280;60173;52.112;8.648;2023-05-03T09:08:48;101935.06;;;8.78;56.35
72262;BME280;60173;52.112;8.648;2023-05-03T09:11:25;101926.25;;;9.32;55.29
72262;BME280;60173;52.112;8.648;2023-05-03T09:13:52;101922.59;;;9.70;54.37
72262;BME280;60173;52.112;8.648;2023-05-03T09:16:23;101920.72;;;10.35;52.93
72262;BME280;60173;52.112;8.648;2023-05-03T09:19:00;101918.06;;;10.88;52.16
72262;BME280;60173;52.112;8.648;2023-05-03T09:21:27;101912.88;;;10.86;50.00
72262;BME280;60173;52.112;8.648;2023-05-03T09:23:54;101923.28;;;11.00;49.95
72262;BME280;60173;52.112;8.648;2023-05-03T09:26:31;101903.66;;;10.08;54.45
72262;BME280;60173;52.112;8.648;2023-05-03T09:29:03;101909.69;;;10.15;54.01
72262;BME280;60173;52.112;8.648;2023-05-03T09:31:32;101911.81;;;10.40;52.06
72262;BME280;60173;52.112;8.648;2023-05-03T09:33:59;101910.59;;;9.93;52.84
72262;BME280;60173;52.112;8.648;2023-05-03T09:36:26;101907.00;;;10.20;52.54
72262;BME280;60173;52.112;8.648;2023-05-03T09:38:53;101916.66;;;10.33;52.07
72262;BME280;60173;52.112;8.648;2023-05-03T09:41:30;101912.47;;;10.57;54.62
72262;BME280;60173;52.112;8.648;2023-05-03T09:43:57;101921.81;;;10.77;52.06
72262;BME280;60173;52.112;8.648;2023-05-03T09:46:23;101921.38;;;10.15;51.48
72262;BME280;60173;52.112;8.648;2023-05-03T09:48:49;101920.25;;;10.96;53.05
72262;BME280;60173;52.112;8.648;2023-05-03T09:51:16;101908.78;;;11.62;49.89
72262;BME280;60173;52.112;8.648;2023-05-03T09:53:43;101911.94;;;11.18;47.20
72262;BME280;60173;52.112;8.648;2023-05-03T09:56:10;101906.44;;;11.03;50.09
72262;BME280;60173;52.112;8.648;2023-05-03T09:58:38;101906.00;;;10.69;52.07
72262;BME280;60173;52.112;8.648;2023-05-03T10:01:05;101902.56;;;10.09;52.02
72262;BME280;60173;52.112;8.648;2023-05-03T10:03:43;101901.06;;;10.23;50.95
72262;BME280;60173;52.112;8.648;2023-05-03T10:08:48;101898.63;;;10.59;53.46
72262;BME280;60173;52.112;8.648;2023-05-03T10:11:17;101895.97;;;10.74;52.29
72262;BME280;60173;52.112;8.648;2023-05-03T10:13:44;101894.53;;;10.19;51.22
72262;BME280;60173;52.112;8.648;2023-05-03T10:16:12;101890.34;;;10.44;51.97
72262;BME280;60173;52.112;8.648;2023-05-03T10:18:45;101883.41;;;10.63;52.21
72262;BME280;60173;52.112;8.648;2023-05-03T10:21:17;101866.91;;;10.75;50.58
72262;BME280;60173;52.112;8.648;2023-05-03T10:24:11;101874.59;;;10.40;50.99
72262;BME280;60173;52.112;8.648;2023-05-03T10:26:43;101872.81;;;10.19;50.65
72262;BME280;60173;52.112;8.648;2023-05-03T10:32:02;101876.50;;;10.08;53.03
72262;BME280;60173;52.112;8.648;2023-05-03T10:34:34;101883.41;;;9.88;52.87
72262;BME280;60173;52.112;8.648;2023-05-03T10:37:04;101870.56;;;10.48;52.97
72262;BME280;60173;52.112;8.648;2023-05-03T10:39:34;101870.03;;;10.51;52.30
72262;BME280;60173;52.112;8.648;2023-05-03T10:42:03;101874.06;;;10.96;51.13
72262;BME280;60173;52.112;8.648;2023-05-03T10:44:48;101873.25;;;10.91;51.43
72262;BME280;60173;52.112;8.648;2023-05-03T10:47:16;101866.16;;;10.90;50.56
72262;BME280;60173;52.112;8.648;2023-05-03T10:49:44;101870.25;;;10.97;53.66
72262;BME280;60173;52.112;8.648;2023-05-03T10:55:01;101876.66;;;11.59;52.39
72262;BME280;60173;52.112;8.648;2023-05-03T10:57:33;101872.03;;;11.34;51.21
72262;BME280;60173;52.112;8.648;2023-05-03T11:00:00;101870.75;;;11.88;52.46
72262;BME280;60173;52.112;8.648;2023-05-03T11:02:31;101867.41;;;11.50;52.33
72262;BME280;60173;52.112;8.648;2023-05-03T11:05:01;101864.44;;;11.67;50.47
72262;BME280;60173;52.112;8.648;2023-05-03T11:07:30;101860.25;;;11.13;50.41
72262;BME280;60173;52.112;8.648;2023-05-03T11:09:56;101862.44;;;11.21;50.37
72262;BME280;60173;52.112;8.648;2023-05-03T11:12:23;101852.75;;;11.66;48.99
72262;BME280;60173;52.112;8.648;2023-05-03T11:14:49;101854.03;;;11.28;49.37
72262;BME280;60173;52.112;8.648;2023-05-03T11:17:16;101842.41;;;11.58;49.50
72262;BME280;60173;52.112;8.648;2023-05-03T11:19:42;101838.56;;;12.26;49.58
72262;BME280;60173;52.112;8.648;2023-05-03T11:22:09;101833.41;;;11.58;48.16
72262;BME280;60173;52.112;8.648;2023-05-03T11:24:35;101831.28;;;12.01;48.89
72262;BME280;60173;52.112;8.648;2023-05-03T11:27:02;101817.91;;;12.09;48.39
72262;BME280;60173;52.112;8.648;2023-05-03T11:29:34;101826.06;;;12.25;49.87
72262;BME280;60173;52.112;8.648;2023-05-03T11:32:00;101829.72;;;10.85;49.92
72262;BME280;60173;52.112;8.648;2023-05-03T11:34:26;101826.59;;;11.65;49.22
72262;BME280;60173;52.112;8.648;2023-05-03T11:36:53;101823.91;;;11.86;48.17
72262;BME280;60173;52.112;8.648;2023-05-03T11:39:19;101824.69;;;11.45;49.43
72262;BME280;60173;52.112;8.648;2023-05-03T11:42:00;101821.44;;;11.94;48.12
72262;BME280;60173;52.112;8.648;2023-05-03T11:44:26;101811.38;;;11.74;49.11
72262;BME280;60173;52.112;8.648;2023-05-03T11:46:53;101807.97;;;12.54;49.63
72262;BME280;60173;52.112;8.648;2023-05-03T11:49:20;101816.72;;;12.41;47.67
72262;BME280;60173;52.112;8.648;2023-05-03T11:51:46;101809.06;;;12.58;50.92
72262;BME280;60173;52.112;8.648;2023-05-03T11:54:17;101806.59;;;12.67;51.63
72262;BME280;60173;52.112;8.648;2023-05-03T11:56:56;101805.38;;;11.83;48.80
72262;BME280;60173;52.112;8.648;2023-05-03T11:59:36;101808.47;;;12.66;49.97
72262;BME280;60173;52.112;8.648;2023-05-03T12:02:03;101802.13;;;11.81;48.60
72262;BME280;60173;52.112;8.648;2023-05-03T12:04:31;101813.72;;;12.53;49.43
72262;BME280;60173;52.112;8.648;2023-05-03T12:06:58;101803.75;;;11.82;51.13
72262;BME280;60173;52.112;8.648;2023-05-03T12:09:26;101807.78;;;12.35;50.18
72262;BME280;60173;52.112;8.648;2023-05-03T12:11:54;101802.69;;;12.78;50.31
72262;BME280;60173;52.112;8.648;2023-05-03T12:14:23;101808.81;;;13.04;48.77
72262;BME280;60173;52.112;8.648;2023-05-03T12:16:51;101810.84;;;13.38;50.08
72262;BME280;60173;52.112;8.648;2023-05-03T12:19:28;101805.47;;;13.18;46.37
72262;BME280;60173;52.112;8.648;2023-05-03T12:21:58;101800.97;;;12.33;48.37
72262;BME280;60173;52.112;8.648;2023-05-03T12:24:45;101802.09;;;12.27;48.00
72262;BME280;60173;52.112;8.648;2023-05-03T12:27:14;101805.69;;;13.31;49.93
72262;BME280;60173;52.112;8.648;2023-05-03T12:29:44;101797.81;;;13.93;46.05
72262;BME280;60173;52.112;8.648;2023-05-03T12:32:12;101798.69;;;13.89;42.44
72262;BME280;60173;52.112;8.648;2023-05-03T12:34:39;101797.50;;;13.37;45.18
72262;BME280;60173;52.112;8.648;2023-05-03T12:37:06;101802.09;;;13.36;46.17
72262;BME280;60173;52.112;8.648;2023-05-03T12:39:36;101792.09;;;13.26;46.35
72262;BME280;60173;52.112;8.648;2023-05-03T12:42:05;101782.97;;;13.75;45.24
72262;BME280;60173;52.112;8.648;2023-05-03T12:44:34;101783.00;;;13.99;47.44
72262;BME280;60173;52.112;8.648;2023-05-03T12:47:01;101776.56;;;13.85;47.08
72262;BME280;60173;52.112;8.648;2023-05-03T12:49:28;101773.53;;;13.63;46.60
72262;BME280;60173;52.112;8.648;2023-05-03T12:51:55;101781.22;;;13.55;47.62
72262;BME280;60173;52.112;8.648;2023-05-03T12:54:41;101784.06;;;13.45;45.10
72262;BME280;60173;52.112;8.648;2023-05-03T12:57:11;101768.97;;;13.82;45.63
72262;BME280;60173;52.112;8.648;2023-05-03T12:59:41;101761.97;;;14.24;46.66
72262;BME280;60173;52.112;8.648;2023-05-03T13:02:16;101772.28;;;13.79;43.79
72262;BME280;60173;52.112;8.648;2023-05-03T13:05:03;101766.84;;;13.74;47.90
72262;BME280;60173;52.112;8.648;2023-05-03T13:07:46;101764.59;;;13.52;46.99
72262;BME280;60173;52.112;8.648;2023-05-03T13:10:20;101766.59;;;13.41;46.78
72262;BME280;60173;52.112;8.648;2023-05-03T13:12:47;101765.94;;;13.15;46.17
72262;BME280;60173;52.112;8.648;2023-05-03T13:15:14;101764.28;;;12.75;48.42